createdAt,value
2019-01-23T05:00:54.258Z,34.70
2019-01-23T05:01:54.128Z,30.20
2019-01-23T05:03:46.798Z,31.10
2019-01-23T05:04:46.666Z,29.60
2019-01-23T05:06:39.318Z,31.90
2019-01-23T05:07:39.207Z,31.30
2019-01-23T05:09:31.886Z,31.90
2019-01-23T05:10:31.745Z,32.50
2019-01-23T05:12:24.407Z,31.10
2019-01-23T05:13:24.295Z,31.90
2019-01-23T05:15:16.969Z,34.30
2019-01-23T05:16:16.832Z,32.80
2019-01-23T05:18:09.479Z,32.70
2019-01-23T05:19:09.373Z,32.60
2019-01-23T05:21:02.052Z,32.50
2019-01-23T05:22:01.916Z,32.30
2019-01-23T05:23:54.569Z,34.70
2019-01-23T05:24:54.461Z,33.20
2019-01-23T05:26:47.134Z,32.80
2019-01-23T05:27:47.001Z,33.50
2019-01-23T05:29:39.665Z,34.10
2019-01-23T05:30:39.540Z,33.30
2019-01-23T05:32:32.191Z,33.70
2019-01-23T05:33:32.078Z,34.90
2019-01-23T05:35:24.751Z,34.80
2019-01-23T05:36:24.618Z,32.90
2019-01-23T05:38:17.262Z,33.80
2019-01-23T05:39:17.146Z,32.70
2019-01-23T05:41:09.815Z,32.30
2019-01-23T05:42:09.683Z,32.00
2019-01-23T05:44:02.342Z,33.40
2019-01-23T05:45:02.231Z,33.00
2019-01-23T05:46:54.895Z,35.10
2019-01-23T05:47:54.763Z,33.70
2019-01-23T05:49:47.441Z,33.10
2019-01-23T05:50:47.296Z,33.80
2019-01-23T05:52:40.099Z,33.50
2019-01-23T05:53:39.855Z,32.90
2019-01-23T05:55:32.518Z,33.70
2019-01-23T05:56:32.381Z,33.00
2019-01-23T05:58:25.042Z,33.80
2019-01-23T05:59:24.922Z,33.40
2019-01-23T06:01:17.595Z,33.70
2019-01-23T06:02:17.470Z,34.20
2019-01-23T06:04:10.121Z,34.40
2019-01-23T06:05:09.996Z,33.40
2019-01-23T06:07:02.668Z,33.40
2019-01-23T06:08:02.536Z,32.00
2019-01-23T06:09:55.186Z,33.70
2019-01-23T06:10:55.072Z,34.30
2019-01-23T06:12:47.749Z,33.80
2019-01-23T06:13:47.612Z,31.70
2019-01-23T06:15:40.287Z,32.00
2019-01-23T06:16:40.148Z,32.50
2019-01-23T06:18:32.801Z,33.00
2019-01-23T06:19:32.685Z,33.30
2019-01-23T06:21:25.349Z,34.90
2019-01-23T06:22:25.222Z,31.10
2019-01-23T06:24:17.880Z,34.40
2019-01-23T06:25:17.759Z,32.60
2019-01-23T06:27:10.442Z,32.40
2019-01-23T06:28:10.309Z,33.20
2019-01-23T06:30:10.086Z,33.30
2019-01-23T06:31:02.849Z,33.10
2019-01-23T06:32:55.518Z,33.00
2019-01-23T06:33:55.393Z,33.40
2019-01-23T06:35:48.061Z,32.80
2019-01-23T06:36:47.925Z,33.50
2019-01-23T06:38:40.579Z,35.60
2019-01-23T06:39:40.465Z,32.80
2019-01-23T06:41:33.148Z,33.80
2019-01-23T06:42:33.009Z,34.20
2019-01-23T06:44:25.665Z,35.60
2019-01-23T06:45:25.551Z,32.90
2019-01-23T06:47:18.222Z,34.50
2019-01-23T06:48:18.093Z,35.30
2019-01-23T06:50:10.746Z,34.20
2019-01-23T06:51:10.628Z,33.70
2019-01-23T06:53:03.304Z,34.40
2019-01-23T06:54:03.168Z,33.90
2019-01-23T06:55:55.829Z,33.50
2019-01-23T06:56:55.704Z,35.10
2019-01-23T06:58:49.066Z,33.30
2019-01-23T06:59:48.252Z,37.50
2019-01-23T07:01:40.921Z,33.60
2019-01-23T07:02:41.251Z,31.30
2019-01-23T07:04:33.497Z,34.50
2019-01-23T07:05:33.382Z,33.20
2019-01-23T07:07:26.055Z,33.90
2019-01-23T07:08:25.924Z,34.70
2019-01-23T07:10:18.590Z,34.50
2019-01-23T07:11:18.464Z,34.20
2019-01-23T07:13:11.138Z,35.50
2019-01-23T07:14:11.036Z,34.20
2019-01-23T07:16:04.686Z,36.20
2019-01-23T07:17:04.082Z,35.10
2019-01-23T07:18:56.755Z,33.20
2019-01-23T07:19:56.617Z,36.70
2019-01-23T07:21:49.289Z,36.20
2019-01-23T07:22:49.162Z,33.90
2019-01-23T07:24:41.819Z,35.20
2019-01-23T07:25:41.699Z,34.40
2019-01-23T07:27:34.374Z,35.90
2019-01-23T07:28:34.235Z,34.60
2019-01-23T07:30:26.898Z,34.90
2019-01-23T07:31:26.782Z,37.20
2019-01-23T07:33:19.455Z,35.80
2019-01-23T07:34:19.326Z,36.00
2019-01-23T07:36:11.981Z,35.60
2019-01-23T07:37:11.861Z,34.10
2019-01-23T07:39:04.521Z,34.60
2019-01-23T07:40:04.394Z,36.20
2019-01-23T07:41:57.103Z,36.90
2019-01-23T07:42:56.934Z,35.50
2019-01-23T07:44:49.601Z,36.10
2019-01-23T07:45:49.471Z,36.40
2019-01-23T07:47:42.143Z,33.60
2019-01-23T07:48:42.003Z,35.50
2019-01-23T07:50:34.658Z,35.90
2019-01-23T07:51:34.545Z,35.70
2019-01-23T07:53:27.216Z,36.60
2019-01-23T07:54:27.089Z,36.80
2019-01-23T07:56:19.737Z,36.50
2019-01-23T07:57:19.625Z,37.50
2019-01-23T07:59:12.305Z,37.40
2019-01-23T08:00:12.168Z,35.90
2019-01-23T08:02:04.817Z,35.70
2019-01-23T08:03:04.701Z,34.70
2019-01-23T08:04:57.370Z,35.20
2019-01-23T08:05:57.240Z,37.40
2019-01-23T08:07:49.911Z,36.70
2019-01-23T08:08:49.775Z,37.40
2019-01-23T08:10:42.434Z,37.50
2019-01-23T08:11:42.319Z,36.70
2019-01-23T08:13:34.984Z,37.30
2019-01-23T08:14:34.866Z,35.50
2019-01-23T08:16:27.518Z,40.90
2019-01-23T08:17:32.707Z,36.60
2019-01-23T08:19:20.080Z,38.60
2019-01-23T08:20:19.940Z,37.20
2019-01-23T08:22:12.594Z,36.60
2019-01-23T08:23:12.486Z,37.40
2019-01-23T08:25:05.160Z,36.90
2019-01-23T08:26:05.020Z,35.40
2019-01-23T08:27:57.697Z,37.90
2019-01-23T08:28:57.558Z,36.70
2019-01-23T08:30:50.215Z,37.30
2019-01-23T08:31:50.102Z,37.40
2019-01-23T08:33:42.778Z,35.90
2019-01-23T08:34:42.645Z,38.50
2019-01-23T08:36:35.300Z,36.10
2019-01-23T08:37:35.185Z,35.50
2019-01-23T08:39:27.865Z,37.10
2019-01-23T08:40:27.734Z,35.90
2019-01-23T08:42:20.399Z,38.70
2019-01-23T08:43:20.284Z,38.10
2019-01-23T08:45:12.954Z,39.30
2019-01-23T08:46:12.821Z,36.30
2019-01-23T08:48:05.487Z,36.60
2019-01-23T08:49:05.366Z,35.90
2019-01-23T08:50:58.047Z,35.90
2019-01-23T08:51:57.912Z,37.90
2019-01-23T08:53:50.589Z,37.60
2019-01-23T08:54:50.462Z,37.90
2019-01-23T08:56:43.115Z,38.00
2019-01-23T08:57:43.013Z,39.50
2019-01-23T08:59:35.667Z,35.10
2019-01-23T09:00:35.537Z,35.80
2019-01-23T09:02:28.192Z,37.30
2019-01-23T09:03:28.081Z,37.00
2019-01-23T09:05:20.751Z,37.60
2019-01-23T09:06:21.883Z,37.70
2019-01-23T09:08:13.277Z,38.30
2019-01-23T09:09:13.151Z,37.60
2019-01-23T09:11:05.824Z,36.80
2019-01-23T09:12:05.697Z,36.80
2019-01-23T09:13:58.364Z,37.60
2019-01-23T09:14:58.265Z,36.20
2019-01-23T09:16:50.890Z,36.90
2019-01-23T09:17:50.772Z,40.00
2019-01-23T09:19:43.440Z,37.40
2019-01-23T09:20:43.312Z,36.40
2019-01-23T09:22:35.974Z,36.20
2019-01-23T09:23:35.852Z,37.80
2019-01-23T09:25:28.527Z,35.40
2019-01-23T09:26:28.399Z,36.90
2019-01-23T09:28:21.060Z,36.40
2019-01-23T09:29:20.974Z,36.50
2019-01-23T09:31:13.617Z,38.10
2019-01-23T09:32:13.479Z,37.30
2019-01-23T09:34:06.141Z,38.60
2019-01-23T09:35:06.023Z,41.70
2019-01-23T09:36:58.697Z,37.80
2019-01-23T09:37:58.563Z,37.10
2019-01-23T09:39:51.246Z,38.10
2019-01-23T09:40:51.103Z,38.30
2019-01-23T09:42:43.761Z,38.90
2019-01-23T09:43:43.716Z,39.30
2019-01-23T09:45:36.324Z,38.60
2019-01-23T09:46:36.189Z,40.00
2019-01-23T09:48:28.851Z,36.30
2019-01-23T09:49:28.739Z,37.00
2019-01-23T09:51:21.421Z,37.80
2019-01-23T09:52:21.287Z,39.90
2019-01-23T09:54:14.126Z,38.80
2019-01-23T09:55:14.101Z,39.00
2019-01-23T09:57:06.740Z,36.50
2019-01-23T09:58:06.574Z,39.60
2019-01-23T09:59:59.239Z,38.60
2019-01-23T10:00:59.786Z,38.60
2019-01-23T10:02:51.828Z,39.00
2019-01-23T10:03:51.684Z,37.40
2019-01-23T10:05:44.337Z,39.70
2019-01-23T10:06:44.226Z,40.00
2019-01-23T10:08:36.894Z,39.30
2019-01-23T10:09:36.764Z,38.50
2019-01-23T10:11:29.429Z,40.50
2019-01-23T10:12:29.312Z,40.60
2019-01-23T10:14:21.988Z,38.20
2019-01-23T10:15:21.854Z,37.50
2019-01-23T10:17:14.520Z,35.70
2019-01-23T10:18:14.402Z,38.10
2019-01-23T10:20:07.073Z,38.50
2019-01-23T10:21:06.949Z,37.60
2019-01-23T10:22:59.600Z,37.90
2019-01-23T10:23:59.492Z,36.40
2019-01-23T10:25:52.206Z,36.90
2019-01-23T10:26:52.032Z,36.40
2019-01-23T10:28:44.703Z,36.60
2019-01-23T10:29:44.574Z,36.40
2019-01-23T10:31:37.235Z,36.50
2019-01-23T10:32:37.125Z,35.90
2019-01-23T10:34:29.793Z,34.20
2019-01-23T10:35:29.665Z,38.30
2019-01-23T10:37:22.319Z,36.40
2019-01-23T10:38:22.206Z,33.90
2019-01-23T10:40:14.881Z,33.10
2019-01-23T10:41:14.748Z,36.00
2019-01-23T10:43:07.410Z,38.10
2019-01-23T10:44:07.298Z,34.40
2019-01-23T10:45:59.973Z,36.80
2019-01-23T10:46:59.845Z,34.80
2019-01-23T10:48:52.515Z,34.90
2019-01-23T10:49:52.385Z,35.00
2019-01-23T10:51:45.045Z,35.50
2019-01-23T10:52:44.932Z,35.70
2019-01-23T10:54:37.607Z,37.10
2019-01-23T10:55:37.483Z,34.40
2019-01-23T10:57:30.133Z,36.90
2019-01-23T10:58:30.026Z,35.80
2019-01-23T11:00:22.690Z,37.00
2019-01-23T11:01:22.562Z,37.00
2019-01-23T11:03:15.222Z,37.10
2019-01-23T11:04:15.111Z,36.40
2019-01-23T11:06:07.789Z,36.10
2019-01-23T11:07:07.662Z,37.20
2019-01-23T11:09:00.321Z,40.20
2019-01-23T11:10:00.245Z,36.80
2019-01-23T11:11:52.915Z,35.50
2019-01-23T11:12:52.749Z,34.40
2019-01-23T11:14:45.429Z,36.40
2019-01-23T11:15:45.297Z,37.80
2019-01-23T11:17:37.982Z,34.90
2019-01-23T11:18:37.834Z,34.20
2019-01-23T11:20:30.503Z,34.40
2019-01-23T11:21:30.377Z,34.30
2019-01-23T11:23:23.029Z,34.50
2019-01-23T11:24:22.911Z,34.00
2019-01-23T11:26:15.580Z,34.70
2019-01-23T11:27:15.453Z,34.30
2019-01-23T11:29:08.117Z,36.30
2019-01-23T11:30:08.002Z,35.70
2019-01-23T11:32:00.671Z,36.90
2019-01-23T11:33:00.543Z,37.20
2019-01-23T11:34:53.230Z,36.30
2019-01-23T11:35:53.103Z,35.50
2019-01-23T11:37:45.766Z,34.70
2019-01-23T11:38:45.650Z,37.80
2019-01-23T11:40:38.333Z,37.30
2019-01-23T11:41:38.205Z,35.50
2019-01-23T11:43:30.859Z,36.90
2019-01-23T11:44:30.746Z,36.70
2019-01-23T11:46:23.420Z,38.50
2019-01-23T11:47:23.292Z,38.00
2019-01-23T11:49:15.955Z,36.10
2019-01-23T11:50:21.863Z,36.70
2019-01-23T11:52:08.514Z,36.80
2019-01-23T11:53:08.383Z,37.30
2019-01-23T11:55:01.041Z,36.60
2019-01-23T11:56:00.928Z,36.50
2019-01-23T11:57:53.600Z,38.90
2019-01-23T11:58:53.477Z,34.60
2019-01-23T12:00:46.143Z,37.80
2019-01-23T12:01:46.022Z,38.80
2019-01-23T12:03:38.680Z,34.30
2019-01-23T12:04:38.563Z,37.10
2019-01-23T12:06:31.232Z,36.50
2019-01-23T12:07:31.104Z,35.50
2019-01-23T12:09:23.763Z,38.10
2019-01-23T12:10:23.649Z,37.80
2019-01-23T12:12:16.399Z,36.90
2019-01-23T12:13:16.195Z,35.70
2019-01-23T12:15:08.859Z,38.60
2019-01-23T12:16:08.745Z,38.30
2019-01-23T12:18:01.413Z,38.30
2019-01-23T12:19:01.286Z,37.10
2019-01-23T12:20:53.964Z,38.50
2019-01-23T12:21:53.828Z,38.20
2019-01-23T12:23:46.520Z,35.20
2019-01-23T12:24:46.401Z,37.60
2019-01-23T12:26:39.091Z,36.40
2019-01-23T12:27:38.964Z,36.20
2019-01-23T12:29:31.623Z,37.90
2019-01-23T12:30:31.514Z,35.60
2019-01-23T12:32:24.187Z,35.80
2019-01-23T12:33:24.046Z,36.70
2019-01-23T12:35:16.714Z,36.80
2019-01-23T12:36:16.591Z,36.70
2019-01-23T12:38:09.267Z,35.40
2019-01-23T12:39:09.133Z,34.70
2019-01-23T12:41:01.796Z,37.90
2019-01-23T12:42:01.680Z,37.90
2019-01-23T12:43:54.354Z,38.30
2019-01-23T12:44:54.223Z,37.30
2019-01-23T12:46:46.896Z,40.20
2019-01-23T12:47:46.755Z,36.50
2019-01-23T12:49:39.422Z,36.80
2019-01-23T12:50:39.309Z,38.00
2019-01-23T12:52:31.986Z,36.50
2019-01-23T12:53:31.850Z,36.00
2019-01-23T12:55:24.511Z,34.30
2019-01-23T12:56:24.396Z,36.70
2019-01-23T12:58:17.068Z,35.30
2019-01-23T12:59:16.936Z,38.30
2019-01-23T13:01:09.594Z,34.60
2019-01-23T13:02:09.867Z,36.80
2019-01-23T13:04:02.159Z,37.40
2019-01-23T13:05:02.032Z,34.70
2019-01-23T13:06:54.707Z,38.70
2019-01-23T13:07:54.576Z,39.20
2019-01-23T13:09:47.238Z,36.50
2019-01-23T13:10:47.132Z,36.60
2019-01-23T13:12:39.820Z,35.60
2019-01-23T13:13:39.691Z,36.50
2019-01-23T13:15:32.347Z,36.00
2019-01-23T13:16:32.232Z,36.40
2019-01-23T13:18:24.910Z,35.40
2019-01-23T13:19:24.776Z,36.40
2019-01-23T13:21:17.438Z,39.70
2019-01-23T13:22:17.317Z,38.30
2019-01-23T13:24:09.995Z,37.30
2019-01-23T13:25:09.866Z,42.10
2019-01-23T13:27:02.807Z,37.40
2019-01-23T13:28:02.412Z,39.60
2019-01-23T13:29:55.074Z,36.30
2019-01-23T13:30:54.946Z,35.90
2019-01-23T13:32:47.616Z,37.60
2019-01-23T13:33:47.489Z,38.80
2019-01-23T13:35:40.144Z,38.80
2019-01-23T13:36:40.036Z,39.70
2019-01-23T13:38:32.716Z,37.70
2019-01-23T13:39:32.570Z,41.60
2019-01-23T13:41:25.303Z,41.50
2019-01-23T13:42:25.123Z,39.50
2019-01-23T13:44:17.796Z,38.60
2019-01-23T13:45:17.662Z,39.30
2019-01-23T13:47:10.318Z,37.60
2019-01-23T13:48:10.219Z,39.80
2019-01-23T13:50:02.883Z,38.60
2019-01-23T13:51:02.755Z,40.40
2019-01-23T13:52:55.442Z,38.10
2019-01-23T13:53:55.295Z,39.70
2019-01-23T13:55:47.965Z,42.50
2019-01-23T13:56:47.838Z,40.90
2019-01-23T13:58:41.837Z,38.40
2019-01-23T13:59:40.385Z,38.70
2019-01-23T14:01:33.051Z,37.30
2019-01-23T14:02:32.934Z,40.80
2019-01-23T14:04:25.606Z,38.00
2019-01-23T14:05:25.467Z,39.10
2019-01-23T14:07:18.140Z,37.80
2019-01-23T14:08:18.022Z,39.20
2019-01-23T14:10:10.701Z,38.30
2019-01-23T14:11:10.571Z,37.60
2019-01-23T14:13:03.228Z,40.60
2019-01-23T14:14:03.106Z,38.50
2019-01-23T14:15:55.783Z,39.00
2019-01-23T14:16:55.660Z,39.50
2019-01-23T14:18:48.338Z,38.00
2019-01-23T14:19:48.201Z,39.90
2019-01-23T14:21:40.861Z,38.80
2019-01-23T14:22:40.744Z,41.20
2019-01-23T14:24:33.424Z,39.10
2019-01-23T14:25:33.287Z,40.50
2019-01-23T14:27:25.948Z,39.00
2019-01-23T14:28:25.841Z,37.50
2019-01-23T14:30:18.513Z,39.70
2019-01-23T14:31:18.385Z,37.60
2019-01-23T14:33:11.043Z,39.90
2019-01-23T14:34:10.918Z,39.50
2019-01-23T14:36:03.606Z,39.00
2019-01-23T14:37:03.471Z,41.90
2019-01-23T14:38:56.172Z,39.20
2019-01-23T14:39:57.153Z,40.50
2019-01-23T14:41:48.686Z,37.20
2019-01-23T14:42:48.564Z,41.00
2019-01-23T14:44:41.248Z,39.30
2019-01-23T14:45:41.111Z,38.90
2019-01-23T14:47:33.773Z,40.80
2019-01-23T14:48:33.655Z,39.20
2019-01-23T14:50:26.331Z,40.20
2019-01-23T14:51:26.199Z,40.40
2019-01-23T14:53:18.858Z,40.90
2019-01-23T14:54:18.738Z,40.80
2019-01-23T14:56:11.412Z,37.80
2019-01-23T14:57:11.329Z,41.40
2019-01-23T14:59:03.964Z,41.30
2019-01-23T15:00:03.824Z,43.80
2019-01-23T15:01:56.479Z,38.40
2019-01-23T15:02:56.385Z,39.70
2019-01-23T15:04:49.029Z,40.60
2019-01-23T15:05:48.903Z,39.30
2019-01-23T15:07:41.560Z,40.60
2019-01-23T15:08:41.437Z,39.10
2019-01-23T15:10:34.113Z,42.20
2019-01-23T15:11:33.975Z,40.30
2019-01-23T15:13:26.635Z,40.20
2019-01-23T15:14:26.525Z,39.60
2019-01-23T15:16:19.198Z,42.20
2019-01-23T15:17:19.068Z,39.50
2019-01-23T15:19:11.729Z,52.60
2019-01-23T15:20:11.611Z,51.60
2019-01-23T15:22:04.291Z,42.90
2019-01-23T15:23:04.156Z,39.70
2019-01-23T15:24:56.831Z,41.20
2019-01-23T15:25:56.702Z,41.20
2019-01-23T15:27:49.358Z,42.90
2019-01-23T15:28:49.240Z,40.80
2019-01-23T15:30:41.928Z,40.80
2019-01-23T15:31:41.790Z,41.20
2019-01-23T15:33:34.461Z,40.90
2019-01-23T15:34:34.340Z,40.30
2019-01-23T15:36:27.019Z,39.40
2019-01-23T15:37:26.892Z,38.90
2019-01-23T15:39:19.546Z,41.80
2019-01-23T15:40:19.429Z,39.50
2019-01-23T15:42:12.114Z,43.70
2019-01-23T15:43:11.976Z,40.60
2019-01-23T15:45:04.648Z,41.50
2019-01-23T15:46:04.534Z,40.00
2019-01-23T15:47:57.204Z,40.40
2019-01-23T15:48:57.069Z,41.90
2019-01-23T15:50:49.754Z,40.50
2019-01-23T15:51:49.626Z,40.50
2019-01-23T15:53:42.271Z,39.20
2019-01-23T15:54:42.222Z,41.30
2019-01-23T15:56:34.832Z,41.20
2019-01-23T15:57:34.698Z,40.30
2019-01-23T15:59:27.362Z,44.40
2019-01-23T16:00:27.248Z,41.50
2019-01-23T16:02:24.273Z,39.30
2019-01-23T16:03:19.785Z,40.40
2019-01-23T16:05:12.443Z,41.00
2019-01-23T16:06:12.328Z,42.50
2019-01-23T16:08:05.000Z,43.10
2019-01-23T16:09:04.874Z,38.50
2019-01-23T16:10:57.548Z,44.00
2019-01-23T16:11:57.405Z,40.60
2019-01-23T16:13:50.066Z,40.10
2019-01-23T16:14:49.952Z,41.70
2019-01-23T16:16:42.620Z,40.20
2019-01-23T16:17:42.485Z,44.50
2019-01-23T16:19:35.148Z,41.70
2019-01-23T16:20:35.034Z,40.50
2019-01-23T16:22:27.714Z,41.40
2019-01-23T16:23:27.741Z,41.20
2019-01-23T16:25:20.242Z,42.00
2019-01-23T16:26:20.810Z,40.60
2019-01-23T16:28:12.812Z,42.50
2019-01-23T16:29:13.758Z,39.50
2019-01-23T16:31:05.343Z,40.10
2019-01-23T16:32:05.227Z,43.20
2019-01-23T16:33:57.893Z,40.40
2019-01-23T16:34:57.758Z,42.20
2019-01-23T16:36:50.432Z,39.60
2019-01-23T16:37:50.295Z,39.70
2019-01-23T16:39:42.952Z,41.60
2019-01-23T16:40:42.843Z,47.40
2019-01-23T16:42:35.530Z,43.90
2019-01-23T16:43:35.400Z,44.70
2019-01-23T16:45:28.056Z,40.60
2019-01-23T16:46:27.937Z,41.80
2019-01-23T16:48:20.627Z,40.60
2019-01-23T16:49:20.480Z,40.00
2019-01-23T16:51:13.143Z,39.60
2019-01-23T16:52:13.027Z,42.00
2019-01-23T16:54:05.702Z,39.80
2019-01-23T16:55:05.717Z,42.20
2019-01-23T16:56:58.235Z,38.60
2019-01-23T16:57:58.107Z,40.50
2019-01-23T16:59:50.757Z,40.20
2019-01-23T17:00:50.639Z,41.60
2019-01-23T17:02:43.311Z,41.90
2019-01-23T17:03:43.175Z,42.20
2019-01-23T17:05:35.829Z,41.20
2019-01-23T17:06:35.718Z,43.80
2019-01-23T17:08:28.393Z,41.80
2019-01-23T17:09:28.260Z,41.50
2019-01-23T17:11:21.242Z,39.50
2019-01-23T17:12:20.803Z,38.60
2019-01-23T17:14:13.468Z,38.80
2019-01-23T17:15:13.339Z,41.50
2019-01-23T17:17:06.110Z,45.20
2019-01-23T17:18:05.871Z,42.80
2019-01-23T17:19:59.267Z,40.20
2019-01-23T17:20:58.406Z,40.40
2019-01-23T17:22:51.080Z,43.10
2019-01-23T17:23:50.946Z,40.70
2019-01-23T17:25:43.598Z,42.00
2019-01-23T17:26:43.480Z,39.50
2019-01-23T17:28:36.157Z,39.80
2019-01-23T17:29:36.021Z,39.70
2019-01-23T17:31:28.675Z,42.70
2019-01-23T17:32:28.563Z,41.40
2019-01-23T17:34:21.262Z,41.40
2019-01-23T17:35:21.107Z,43.10
2019-01-23T17:37:13.768Z,41.20
2019-01-23T17:38:13.651Z,39.80
2019-01-23T17:40:06.318Z,39.00
2019-01-23T17:41:06.187Z,41.30
2019-01-23T17:42:58.860Z,40.10
2019-01-23T17:43:58.728Z,41.70
2019-01-23T17:45:51.382Z,39.80
2019-01-23T17:46:51.260Z,39.90
2019-01-23T17:48:43.936Z,44.90
2019-01-23T17:49:43.800Z,41.60
2019-01-23T17:51:36.466Z,39.40
2019-01-23T17:52:36.334Z,37.80
2019-01-23T17:54:29.038Z,40.20
2019-01-23T17:55:28.901Z,38.90
2019-01-23T17:57:21.554Z,40.30
2019-01-23T17:58:21.433Z,37.80
2019-01-23T18:00:14.103Z,38.30
2019-01-23T18:01:13.970Z,41.40
2019-01-23T18:03:06.626Z,40.10
2019-01-23T18:04:06.510Z,39.40
2019-01-23T18:05:59.176Z,40.60
2019-01-23T18:06:59.063Z,40.60
2019-01-23T18:08:51.709Z,40.80
2019-01-23T18:09:51.579Z,41.00
2019-01-23T18:11:44.239Z,43.80
2019-01-23T18:12:44.125Z,42.70
2019-01-23T18:14:36.787Z,41.90
2019-01-23T18:15:36.658Z,42.50
2019-01-23T18:17:29.306Z,43.30
2019-01-23T18:18:29.193Z,42.30
2019-01-23T18:20:21.866Z,43.60
2019-01-23T18:21:21.727Z,43.80
2019-01-23T18:23:14.398Z,42.20
2019-01-23T18:24:14.287Z,40.60
2019-01-23T18:26:06.958Z,42.60
2019-01-23T18:27:06.822Z,44.00
2019-01-23T18:28:59.502Z,42.70
2019-01-23T18:29:59.354Z,43.80
2019-01-23T18:31:52.015Z,42.80
2019-01-23T18:32:51.896Z,46.30
2019-01-23T18:34:44.589Z,44.30
2019-01-23T18:35:44.497Z,44.20
2019-01-23T18:37:37.176Z,44.20
2019-01-23T18:38:37.004Z,43.30
2019-01-23T18:40:29.766Z,46.10
2019-01-23T18:41:29.543Z,43.70
2019-01-23T18:43:22.188Z,46.80
2019-01-23T18:44:22.081Z,45.40
2019-01-23T18:46:14.794Z,44.50
2019-01-23T18:47:14.627Z,44.60
2019-01-23T18:49:07.360Z,41.40
2019-01-23T18:50:07.231Z,43.80
2019-01-23T18:51:59.896Z,43.10
2019-01-23T18:52:59.788Z,42.30
2019-01-23T18:54:52.426Z,45.40
2019-01-23T18:55:52.338Z,45.40
2019-01-23T18:57:44.980Z,47.80
2019-01-23T18:58:44.870Z,45.30
2019-01-23T19:00:37.527Z,43.20
2019-01-23T19:01:37.379Z,43.30
2019-01-23T19:03:30.054Z,45.70
2019-01-23T19:04:29.918Z,46.30
2019-01-23T19:06:22.598Z,46.00
2019-01-23T19:07:22.459Z,47.40
2019-01-23T19:09:15.115Z,43.40
2019-01-23T19:10:14.998Z,43.40
2019-01-23T19:12:07.666Z,47.60
2019-01-23T19:13:07.531Z,47.00
2019-01-23T19:15:00.183Z,44.40
2019-01-23T19:16:00.069Z,42.90
2019-01-23T19:17:52.752Z,46.30
2019-01-23T19:18:52.605Z,46.40
2019-01-23T19:20:45.252Z,47.20
2019-01-23T19:21:45.131Z,47.50
2019-01-23T19:23:37.804Z,46.70
2019-01-23T19:24:37.670Z,46.30
2019-01-23T19:26:30.421Z,48.10
2019-01-23T19:27:30.299Z,47.70
2019-01-23T19:29:22.980Z,46.50
2019-01-23T19:30:22.848Z,47.00
2019-01-23T19:33:15.382Z,44.30
2019-01-23T19:35:08.042Z,47.60
2019-01-23T19:36:07.921Z,47.10
2019-01-23T19:38:00.583Z,48.40
2019-01-23T19:39:00.459Z,46.60
2019-01-23T19:40:53.111Z,50.60
2019-01-23T19:41:52.989Z,49.10
2019-01-23T19:43:45.662Z,47.80
2019-01-23T19:44:45.523Z,47.70
2019-01-23T19:46:38.227Z,46.00
2019-01-23T19:47:38.086Z,45.20
2019-01-23T19:49:30.768Z,46.20
2019-01-23T19:50:30.597Z,47.20
2019-01-23T19:52:23.248Z,48.90
2019-01-23T19:53:23.131Z,46.90
2019-01-23T19:55:15.799Z,46.90
2019-01-23T19:56:15.668Z,47.30
2019-01-23T19:58:08.359Z,47.10
2019-01-23T19:59:08.197Z,49.40
2019-01-23T20:01:00.849Z,48.20
2019-01-23T20:02:00.736Z,49.90
2019-01-23T20:03:53.405Z,44.00
2019-01-23T20:04:53.265Z,47.60
2019-01-23T20:06:45.920Z,48.50
2019-01-23T20:07:45.801Z,47.00
2019-01-23T20:09:38.477Z,46.10
2019-01-23T20:10:38.344Z,48.70
2019-01-23T20:12:31.007Z,44.40
2019-01-23T20:13:30.883Z,44.70
2019-01-23T20:15:23.546Z,52.10
2019-01-23T20:16:23.416Z,47.40
2019-01-23T20:18:16.100Z,50.20
2019-01-23T20:19:15.953Z,47.20
2019-01-23T20:21:08.614Z,47.60
2019-01-23T20:22:08.492Z,48.70
2019-01-23T20:24:01.184Z,47.00
2019-01-23T20:25:01.035Z,46.00
2019-01-23T20:26:53.690Z,47.50
2019-01-23T20:27:53.574Z,46.40
2019-01-23T20:29:46.273Z,49.60
2019-01-23T20:30:46.132Z,49.60
2019-01-23T20:32:38.785Z,48.00
2019-01-23T20:33:39.073Z,51.00
2019-01-23T20:35:31.400Z,51.00
2019-01-23T20:36:31.207Z,47.00
2019-01-23T20:38:23.876Z,46.50
2019-01-23T20:39:23.757Z,49.70
2019-01-23T20:41:16.433Z,49.10
2019-01-23T20:42:16.300Z,47.30
2019-01-23T20:44:08.953Z,48.10
2019-01-23T20:45:08.838Z,47.10
2019-01-23T20:47:01.532Z,49.30
2019-01-23T20:48:01.394Z,48.50
2019-01-23T20:49:54.072Z,49.70
2019-01-23T20:50:53.931Z,50.70
2019-01-23T20:52:46.591Z,48.70
2019-01-23T20:53:46.470Z,49.50
2019-01-23T20:55:39.402Z,49.90
2019-01-23T20:56:39.029Z,50.90
2019-01-23T20:58:31.671Z,49.70
2019-01-23T20:59:31.582Z,48.60
2019-01-23T21:01:24.220Z,47.10
2019-01-23T21:02:24.079Z,49.80
2019-01-23T21:04:16.741Z,48.20
2019-01-23T21:05:16.642Z,50.50
2019-01-23T21:07:09.302Z,49.60
2019-01-23T21:08:09.235Z,50.30
2019-01-23T21:10:01.811Z,47.80
2019-01-23T21:11:01.694Z,52.50
2019-01-23T21:12:54.482Z,53.30
2019-01-23T21:13:54.322Z,49.20
2019-01-23T21:15:46.932Z,51.30
2019-01-23T21:16:46.789Z,49.10
2019-01-23T21:18:39.433Z,51.30
2019-01-23T21:19:39.379Z,49.00
2019-01-23T21:21:32.013Z,51.20
2019-01-23T21:22:32.063Z,49.70
2019-01-23T21:24:24.511Z,50.20
2019-01-23T21:25:24.396Z,46.60
2019-01-23T21:27:17.065Z,48.30
2019-01-23T21:28:16.944Z,49.80
2019-01-23T21:30:09.682Z,50.50
2019-01-23T21:31:09.513Z,48.20
2019-01-23T21:33:02.179Z,50.80
2019-01-23T21:34:02.067Z,50.60
2019-01-23T21:35:54.727Z,72.60
2019-01-23T21:36:54.585Z,102.40
2019-01-23T21:38:47.252Z,55.10
2019-01-23T21:39:47.121Z,51.30
2019-01-23T21:41:39.799Z,52.40
2019-01-23T21:42:39.661Z,50.90
2019-01-23T21:44:32.352Z,48.90
2019-01-23T21:45:32.229Z,52.00
2019-01-23T21:47:24.900Z,51.70
2019-01-23T21:48:24.769Z,56.40
2019-01-23T21:50:17.416Z,50.90
2019-01-23T21:51:17.303Z,53.30
2019-01-23T21:53:09.972Z,53.30
2019-01-23T21:54:09.838Z,52.60
2019-01-23T21:56:02.489Z,50.20
2019-01-23T21:57:02.373Z,51.90
2019-01-23T21:58:55.054Z,54.90
2019-01-23T21:59:54.915Z,49.90
2019-01-23T22:01:47.590Z,54.80
2019-01-23T22:02:47.460Z,49.60
2019-01-23T22:04:40.107Z,51.60
2019-01-23T22:05:39.990Z,50.60
2019-01-23T22:07:32.667Z,49.70
2019-01-23T22:08:32.525Z,51.90
2019-01-23T22:10:25.193Z,51.70
2019-01-23T22:11:25.069Z,53.30
2019-01-23T22:13:17.740Z,50.50
2019-01-23T22:14:17.610Z,52.10
2019-01-23T22:16:10.268Z,50.40
2019-01-23T22:17:10.145Z,52.00
2019-01-23T22:19:02.813Z,50.80
2019-01-23T22:20:02.676Z,52.20
2019-01-23T22:21:55.350Z,49.00
2019-01-23T22:22:55.216Z,51.10
2019-01-23T22:24:47.862Z,50.80
2019-01-23T22:25:47.749Z,47.50
2019-01-23T22:27:40.414Z,52.70
2019-01-23T22:28:40.286Z,51.50
2019-01-23T22:30:32.944Z,51.70
2019-01-23T22:31:32.831Z,55.60
2019-01-23T22:33:25.494Z,51.50
2019-01-23T22:34:25.370Z,51.50
2019-01-23T22:36:18.024Z,55.00
2019-01-23T22:37:17.904Z,52.40
2019-01-23T22:39:10.598Z,54.30
2019-01-23T22:40:10.460Z,55.80
2019-01-23T22:42:03.121Z,55.10
2019-01-23T22:43:03.007Z,53.40
2019-01-23T22:44:55.668Z,56.50
2019-01-23T22:45:55.537Z,53.30
2019-01-23T22:47:48.207Z,54.90
2019-01-23T22:48:48.065Z,54.50
2019-01-23T22:50:40.727Z,54.60
2019-01-23T22:51:40.603Z,52.30
2019-01-23T22:53:33.274Z,55.00
2019-01-23T22:54:33.140Z,55.50
2019-01-23T22:56:25.788Z,58.80
2019-01-23T22:57:25.665Z,54.70
2019-01-23T22:59:18.333Z,55.10
